sensor_id;sensor_type;location;lat;lon;timestamp;P1;durP1;ratioP1;P2;durP2;ratioP2
3253;SDS011;1639;42.804;23.342;2024-03-02T00:01:50;38.27;;;27.70;;
3253;SDS011;1639;42.804;23.342;2024-03-02T00:04:15;26.40;;;20.70;;
3253;SDS011;1639;42.804;23.342;2024-03-02T00:06:42;26.50;;;20.57;;
3253;SDS011;1639;42.804;23.342;2024-03-02T00:09:08;29.87;;;20.67;;
3253;SDS011;1639;42.804;23.342;2024-03-02T00:11:37;27.33;;;18.73;;
3253;SDS011;1639;42.804;23.342;2024-03-02T00:14:03;31.33;;;18.77;;
3253;SDS011;1639;42.804;23.342;2024-03-02T00:16:32;27.40;;;18.37;;
3253;SDS011;1639;42.804;23.342;2024-03-02T00:19:02;25.03;;;19.27;;
3253;SDS011;1639;42.804;23.342;2024-03-02T00:21:31;31.10;;;19.47;;
3253;SDS011;1639;42.804;23.342;2024-03-02T00:23:57;27.67;;;18.57;;
3253;SDS011;1639;42.804;23.342;2024-03-02T00:26:23;36.63;;;20.17;;
3253;SDS011;1639;42.804;23.342;2024-03-02T00:28:48;24.03;;;18.07;;
3253;SDS011;1639;42.804;23.342;2024-03-02T00:31:15;26.63;;;19.43;;
3253;SDS011;1639;42.804;23.342;2024-03-02T00:33:49;45.67;;;20.40;;
3253;SDS011;1639;42.804;23.342;2024-03-02T00:36:14;36.50;;;28.10;;
3253;SDS011;1639;42.804;23.342;2024-03-02T00:38:50;26.07;;;20.03;;
3253;SDS011;1639;42.804;23.342;2024-03-02T00:41:18;23.50;;;19.07;;
3253;SDS011;1639;42.804;23.342;2024-03-02T00:46:16;39.03;;;20.83;;
3253;SDS011;1639;42.804;23.342;2024-03-02T00:48:51;26.90;;;20.00;;
3253;SDS011;1639;42.804;23.342;2024-03-02T00:51:21;27.73;;;19.63;;
3253;SDS011;1639;42.804;23.342;2024-03-02T00:53:47;22.20;;;19.90;;
3253;SDS011;1639;42.804;23.342;2024-03-02T00:56:13;28.67;;;20.43;;
3253;SDS011;1639;42.804;23.342;2024-03-02T00:58:39;24.17;;;18.53;;
3253;SDS011;1639;42.804;23.342;2024-03-02T01:01:05;30.90;;;22.50;;
3253;SDS011;1639;42.804;23.342;2024-03-02T01:03:31;26.80;;;18.97;;
3253;SDS011;1639;42.804;23.342;2024-03-02T01:05:57;26.50;;;19.80;;
3253;SDS011;1639;42.804;23.342;2024-03-02T01:08:23;30.90;;;19.87;;
3253;SDS011;1639;42.804;23.342;2024-03-02T01:10:49;19.87;;;16.17;;
3253;SDS011;1639;42.804;23.342;2024-03-02T01:13:14;28.00;;;22.73;;
3253;SDS011;1639;42.804;23.342;2024-03-02T01:15:40;34.93;;;21.33;;
3253;SDS011;1639;42.804;23.342;2024-03-02T01:18:05;28.30;;;21.87;;
3253;SDS011;1639;42.804;23.342;2024-03-02T01:20:31;25.90;;;20.37;;
3253;SDS011;1639;42.804;23.342;2024-03-02T01:22:56;28.07;;;20.83;;
3253;SDS011;1639;42.804;23.342;2024-03-02T01:25:21;29.60;;;20.90;;
3253;SDS011;1639;42.804;23.342;2024-03-02T01:27:47;29.73;;;20.47;;
3253;SDS011;1639;42.804;23.342;2024-03-02T01:30:12;30.53;;;21.90;;
3253;SDS011;1639;42.804;23.342;2024-03-02T01:32:38;30.17;;;20.63;;
3253;SDS011;1639;42.804;23.342;2024-03-02T01:35:04;22.60;;;19.57;;
3253;SDS011;1639;42.804;23.342;2024-03-02T01:37:30;29.10;;;22.10;;
3253;SDS011;1639;42.804;23.342;2024-03-02T01:39:55;34.10;;;24.93;;
3253;SDS011;1639;42.804;23.342;2024-03-02T01:42:21;33.63;;;21.40;;
3253;SDS011;1639;42.804;23.342;2024-03-02T01:44:47;36.73;;;20.47;;
3253;SDS011;1639;42.804;23.342;2024-03-02T01:47:12;26.07;;;18.73;;
3253;SDS011;1639;42.804;23.342;2024-03-02T01:49:38;30.57;;;20.10;;
3253;SDS011;1639;42.804;23.342;2024-03-02T01:52:04;28.13;;;20.83;;
3253;SDS011;1639;42.804;23.342;2024-03-02T01:54:29;28.50;;;20.00;;
3253;SDS011;1639;42.804;23.342;2024-03-02T01:56:54;30.33;;;22.10;;
3253;SDS011;1639;42.804;23.342;2024-03-02T01:59:20;35.10;;;24.27;;
3253;SDS011;1639;42.804;23.342;2024-03-02T02:01:45;41.00;;;22.13;;
3253;SDS011;1639;42.804;23.342;2024-03-02T02:04:11;38.40;;;23.80;;
3253;SDS011;1639;42.804;23.342;2024-03-02T02:06:36;36.27;;;23.43;;
3253;SDS011;1639;42.804;23.342;2024-03-02T02:09:02;30.40;;;21.87;;
3253;SDS011;1639;42.804;23.342;2024-03-02T02:11:27;38.47;;;21.50;;
3253;SDS011;1639;42.804;23.342;2024-03-02T02:13:53;26.43;;;20.80;;
3253;SDS011;1639;42.804;23.342;2024-03-02T02:16:21;28.83;;;21.40;;
3253;SDS011;1639;42.804;23.342;2024-03-02T02:18:46;38.13;;;21.83;;
3253;SDS011;1639;42.804;23.342;2024-03-02T02:21:12;30.07;;;23.37;;
3253;SDS011;1639;42.804;23.342;2024-03-02T02:23:37;34.03;;;23.73;;
3253;SDS011;1639;42.804;23.342;2024-03-02T02:26:03;34.77;;;23.40;;
3253;SDS011;1639;42.804;23.342;2024-03-02T02:28:28;23.43;;;20.37;;
3253;SDS011;1639;42.804;23.342;2024-03-02T02:30:54;23.50;;;21.00;;
3253;SDS011;1639;42.804;23.342;2024-03-02T02:33:21;29.93;;;21.73;;
3253;SDS011;1639;42.804;23.342;2024-03-02T02:35:47;30.53;;;23.90;;
3253;SDS011;1639;42.804;23.342;2024-03-02T02:38:12;26.73;;;22.90;;
3253;SDS011;1639;42.804;23.342;2024-03-02T02:40:37;27.67;;;22.47;;
3253;SDS011;1639;42.804;23.342;2024-03-02T02:43:03;34.90;;;22.50;;
3253;SDS011;1639;42.804;23.342;2024-03-02T02:45:28;30.90;;;19.83;;
3253;SDS011;1639;42.804;23.342;2024-03-02T02:47:54;28.47;;;21.77;;
3253;SDS011;1639;42.804;23.342;2024-03-02T02:50:19;31.57;;;21.67;;
3253;SDS011;1639;42.804;23.342;2024-03-02T02:52:45;38.57;;;25.57;;
3253;SDS011;1639;42.804;23.342;2024-03-02T02:55:11;35.30;;;22.17;;
3253;SDS011;1639;42.804;23.342;2024-03-02T02:57:39;24.50;;;19.60;;
3253;SDS011;1639;42.804;23.342;2024-03-02T03:00:07;30.13;;;21.77;;
3253;SDS011;1639;42.804;23.342;2024-03-02T03:02:41;29.83;;;20.50;;
3253;SDS011;1639;42.804;23.342;2024-03-02T03:05:08;25.30;;;20.50;;
3253;SDS011;1639;42.804;23.342;2024-03-02T03:07:35;30.80;;;21.90;;
3253;SDS011;1639;42.804;23.342;2024-03-02T03:10:01;24.40;;;20.60;;
3253;SDS011;1639;42.804;23.342;2024-03-02T03:12:28;32.13;;;24.53;;
3253;SDS011;1639;42.804;23.342;2024-03-02T03:14:54;38.07;;;22.13;;
3253;SDS011;1639;42.804;23.342;2024-03-02T03:17:21;29.93;;;22.20;;
3253;SDS011;1639;42.804;23.342;2024-03-02T03:19:46;30.40;;;19.87;;
3253;SDS011;1639;42.804;23.342;2024-03-02T03:22:12;35.23;;;21.00;;
3253;SDS011;1639;42.804;23.342;2024-03-02T03:24:38;31.90;;;22.57;;
3253;SDS011;1639;42.804;23.342;2024-03-02T03:27:03;27.10;;;19.90;;
3253;SDS011;1639;42.804;23.342;2024-03-02T03:29:29;21.30;;;18.43;;
3253;SDS011;1639;42.804;23.342;2024-03-02T03:31:54;31.80;;;19.47;;
3253;SDS011;1639;42.804;23.342;2024-03-02T03:34:19;27.63;;;18.77;;
3253;SDS011;1639;42.804;23.342;2024-03-02T03:36:45;34.13;;;21.07;;
3253;SDS011;1639;42.804;23.342;2024-03-02T03:39:10;29.10;;;20.17;;
3253;SDS011;1639;42.804;23.342;2024-03-02T03:41:36;23.03;;;19.77;;
3253;SDS011;1639;42.804;23.342;2024-03-02T03:44:01;41.70;;;22.57;;
3253;SDS011;1639;42.804;23.342;2024-03-02T03:46:26;27.53;;;22.13;;
3253;SDS011;1639;42.804;23.342;2024-03-02T03:48:52;26.27;;;20.80;;
3253;SDS011;1639;42.804;23.342;2024-03-02T03:51:17;34.80;;;19.87;;
3253;SDS011;1639;42.804;23.342;2024-03-02T03:53:43;32.07;;;20.70;;
3253;SDS011;1639;42.804;23.342;2024-03-02T03:56:08;28.93;;;20.37;;
3253;SDS011;1639;42.804;23.342;2024-03-02T03:58:33;29.03;;;19.97;;
3253;SDS011;1639;42.804;23.342;2024-03-02T04:00:59;27.20;;;19.63;;
3253;SDS011;1639;42.804;23.342;2024-03-02T04:03:24;24.80;;;19.40;;
3253;SDS011;1639;42.804;23.342;2024-03-02T04:05:50;32.70;;;19.07;;
3253;SDS011;1639;42.804;23.342;2024-03-02T04:08:15;22.97;;;18.50;;
3253;SDS011;1639;42.804;23.342;2024-03-02T04:10:41;26.70;;;20.10;;
3253;SDS011;1639;42.804;23.342;2024-03-02T04:13:07;24.90;;;18.67;;
3253;SDS011;1639;42.804;23.342;2024-03-02T04:15:32;34.47;;;21.87;;
3253;SDS011;1639;42.804;23.342;2024-03-02T04:17:58;31.63;;;21.73;;
3253;SDS011;1639;42.804;23.342;2024-03-02T04:20:23;25.00;;;20.37;;
3253;SDS011;1639;42.804;23.342;2024-03-02T04:22:49;39.70;;;22.37;;
3253;SDS011;1639;42.804;23.342;2024-03-02T04:25:14;31.30;;;20.60;;
3253;SDS011;1639;42.804;23.342;2024-03-02T04:27:39;36.30;;;19.87;;
3253;SDS011;1639;42.804;23.342;2024-03-02T04:30:05;28.97;;;19.67;;
3253;SDS011;1639;42.804;23.342;2024-03-02T04:32:30;29.83;;;21.80;;
3253;SDS011;1639;42.804;23.342;2024-03-02T04:34:56;29.17;;;20.53;;
3253;SDS011;1639;42.804;23.342;2024-03-02T04:37:22;28.00;;;20.97;;
3253;SDS011;1639;42.804;23.342;2024-03-02T04:39:47;30.30;;;20.70;;
3253;SDS011;1639;42.804;23.342;2024-03-02T04:42:13;30.63;;;22.30;;
3253;SDS011;1639;42.804;23.342;2024-03-02T04:44:38;26.80;;;22.47;;
3253;SDS011;1639;42.804;23.342;2024-03-02T04:47:04;31.47;;;21.70;;
3253;SDS011;1639;42.804;23.342;2024-03-02T04:49:30;30.03;;;20.33;;
3253;SDS011;1639;42.804;23.342;2024-03-02T04:51:55;35.63;;;21.77;;
3253;SDS011;1639;42.804;23.342;2024-03-02T04:54:21;25.57;;;20.60;;
3253;SDS011;1639;42.804;23.342;2024-03-02T04:56:47;23.53;;;19.73;;
3253;SDS011;1639;42.804;23.342;2024-03-02T04:59:15;26.63;;;22.07;;
3253;SDS011;1639;42.804;23.342;2024-03-02T05:01:42;31.40;;;20.87;;
3253;SDS011;1639;42.804;23.342;2024-03-02T05:04:07;39.40;;;22.67;;
3253;SDS011;1639;42.804;23.342;2024-03-02T05:06:33;31.87;;;19.77;;
3253;SDS011;1639;42.804;23.342;2024-03-02T05:08:58;34.20;;;21.50;;
3253;SDS011;1639;42.804;23.342;2024-03-02T05:11:24;41.33;;;22.40;;
3253;SDS011;1639;42.804;23.342;2024-03-02T05:14:04;36.83;;;24.63;;
3253;SDS011;1639;42.804;23.342;2024-03-02T05:16:34;32.00;;;23.07;;
3253;SDS011;1639;42.804;23.342;2024-03-02T05:19:00;22.13;;;19.80;;
3253;SDS011;1639;42.804;23.342;2024-03-02T05:21:25;29.43;;;23.70;;
3253;SDS011;1639;42.804;23.342;2024-03-02T05:23:51;24.47;;;21.00;;
3253;SDS011;1639;42.804;23.342;2024-03-02T05:26:16;38.90;;;24.27;;
3253;SDS011;1639;42.804;23.342;2024-03-02T05:28:42;28.73;;;19.77;;
3253;SDS011;1639;42.804;23.342;2024-03-02T05:31:10;28.63;;;24.03;;
3253;SDS011;1639;42.804;23.342;2024-03-02T05:33:39;30.00;;;21.10;;
3253;SDS011;1639;42.804;23.342;2024-03-02T05:36:05;30.07;;;24.27;;
3253;SDS011;1639;42.804;23.342;2024-03-02T05:38:31;28.17;;;23.37;;
3253;SDS011;1639;42.804;23.342;2024-03-02T05:40:56;31.33;;;23.40;;
3253;SDS011;1639;42.804;23.342;2024-03-02T05:43:22;40.37;;;23.07;;
3253;SDS011;1639;42.804;23.342;2024-03-02T05:45:47;31.60;;;25.20;;
3253;SDS011;1639;42.804;23.342;2024-03-02T05:48:12;38.33;;;22.73;;
3253;SDS011;1639;42.804;23.342;2024-03-02T05:50:38;42.87;;;21.37;;
3253;SDS011;1639;42.804;23.342;2024-03-02T05:53:03;36.73;;;26.10;;
3253;SDS011;1639;42.804;23.342;2024-03-02T05:55:29;42.77;;;26.67;;
3253;SDS011;1639;42.804;23.342;2024-03-02T05:57:54;50.83;;;30.53;;
3253;SDS011;1639;42.804;23.342;2024-03-02T06:00:31;44.53;;;29.40;;
3253;SDS011;1639;42.804;23.342;2024-03-02T06:02:57;48.87;;;35.43;;
3253;SDS011;1639;42.804;23.342;2024-03-02T06:05:23;53.00;;;35.67;;
3253;SDS011;1639;42.804;23.342;2024-03-02T06:07:48;40.13;;;34.20;;
3253;SDS011;1639;42.804;23.342;2024-03-02T06:10:13;34.37;;;29.27;;
3253;SDS011;1639;42.804;23.342;2024-03-02T06:12:39;45.73;;;30.20;;
3253;SDS011;1639;42.804;23.342;2024-03-02T06:15:05;31.43;;;26.10;;
3253;SDS011;1639;42.804;23.342;2024-03-02T06:17:30;31.27;;;27.90;;
3253;SDS011;1639;42.804;23.342;2024-03-02T06:19:56;44.53;;;28.70;;
3253;SDS011;1639;42.804;23.342;2024-03-02T06:22:21;37.37;;;26.30;;
3253;SDS011;1639;42.804;23.342;2024-03-02T06:24:49;36.03;;;27.40;;
3253;SDS011;1639;42.804;23.342;2024-03-02T06:27:15;43.33;;;28.60;;
3253;SDS011;1639;42.804;23.342;2024-03-02T06:29:40;44.43;;;29.50;;
3253;SDS011;1639;42.804;23.342;2024-03-02T06:32:06;33.47;;;28.07;;
3253;SDS011;1639;42.804;23.342;2024-03-02T06:34:31;35.47;;;26.57;;
3253;SDS011;1639;42.804;23.342;2024-03-02T06:36:56;39.50;;;28.00;;
3253;SDS011;1639;42.804;23.342;2024-03-02T06:39:22;38.90;;;26.97;;
3253;SDS011;1639;42.804;23.342;2024-03-02T06:41:47;34.53;;;24.97;;
3253;SDS011;1639;42.804;23.342;2024-03-02T06:44:13;36.70;;;27.87;;
3253;SDS011;1639;42.804;23.342;2024-03-02T06:46:38;41.63;;;24.60;;
3253;SDS011;1639;42.804;23.342;2024-03-02T06:49:03;35.47;;;26.53;;
3253;SDS011;1639;42.804;23.342;2024-03-02T06:51:29;36.73;;;27.30;;
3253;SDS011;1639;42.804;23.342;2024-03-02T06:53:55;40.10;;;27.27;;
3253;SDS011;1639;42.804;23.342;2024-03-02T06:56:20;29.50;;;25.80;;
3253;SDS011;1639;42.804;23.342;2024-03-02T06:58:46;48.97;;;31.43;;
3253;SDS011;1639;42.804;23.342;2024-03-02T07:01:12;47.50;;;28.23;;
3253;SDS011;1639;42.804;23.342;2024-03-02T07:03:38;47.87;;;26.30;;
3253;SDS011;1639;42.804;23.342;2024-03-02T07:06:04;34.53;;;26.00;;
3253;SDS011;1639;42.804;23.342;2024-03-02T07:08:30;38.47;;;27.00;;
3253;SDS011;1639;42.804;23.342;2024-03-02T07:10:55;42.37;;;28.20;;
3253;SDS011;1639;42.804;23.342;2024-03-02T07:13:22;38.63;;;27.27;;
3253;SDS011;1639;42.804;23.342;2024-03-02T07:15:47;36.53;;;27.33;;
3253;SDS011;1639;42.804;23.342;2024-03-02T07:18:36;39.73;;;25.40;;
3253;SDS011;1639;42.804;23.342;2024-03-02T07:21:09;38.93;;;26.70;;
3253;SDS011;1639;42.804;23.342;2024-03-02T07:23:34;36.33;;;28.30;;
3253;SDS011;1639;42.804;23.342;2024-03-02T07:26:00;35.73;;;27.13;;
3253;SDS011;1639;42.804;23.342;2024-03-02T07:28:26;49.43;;;28.17;;
3253;SDS011;1639;42.804;23.342;2024-03-02T07:30:59;37.40;;;30.63;;
3253;SDS011;1639;42.804;23.342;2024-03-02T07:33:24;38.13;;;30.90;;
3253;SDS011;1639;42.804;23.342;2024-03-02T07:35:49;31.87;;;24.97;;
3253;SDS011;1639;42.804;23.342;2024-03-02T07:38:15;43.47;;;27.00;;
3253;SDS011;1639;42.804;23.342;2024-03-02T07:40:40;36.60;;;26.17;;
3253;SDS011;1639;42.804;23.342;2024-03-02T07:43:05;46.50;;;25.70;;
3253;SDS011;1639;42.804;23.342;2024-03-02T07:45:31;44.30;;;28.00;;
3253;SDS011;1639;42.804;23.342;2024-03-02T07:47:56;55.07;;;28.10;;
3253;SDS011;1639;42.804;23.342;2024-03-02T07:50:22;27.67;;;24.27;;
3253;SDS011;1639;42.804;23.342;2024-03-02T07:52:47;39.30;;;27.13;;
3253;SDS011;1639;42.804;23.342;2024-03-02T07:55:13;30.67;;;25.10;;
3253;SDS011;1639;42.804;23.342;2024-03-02T07:57:38;34.67;;;25.67;;
3253;SDS011;1639;42.804;23.342;2024-03-02T08:00:04;31.33;;;25.07;;
3253;SDS011;1639;42.804;23.342;2024-03-02T08:02:30;40.93;;;28.27;;
3253;SDS011;1639;42.804;23.342;2024-03-02T08:04:55;39.13;;;26.93;;
3253;SDS011;1639;42.804;23.342;2024-03-02T08:07:20;36.23;;;23.83;;
3253;SDS011;1639;42.804;23.342;2024-03-02T08:09:46;36.17;;;23.10;;
3253;SDS011;1639;42.804;23.342;2024-03-02T08:12:11;34.77;;;23.63;;
3253;SDS011;1639;42.804;23.342;2024-03-02T08:14:36;37.23;;;22.63;;
3253;SDS011;1639;42.804;23.342;2024-03-02T08:17:02;32.10;;;19.70;;
3253;SDS011;1639;42.804;23.342;2024-03-02T08:19:27;25.97;;;20.57;;
3253;SDS011;1639;42.804;23.342;2024-03-02T08:21:53;25.13;;;18.33;;
3253;SDS011;1639;42.804;23.342;2024-03-02T08:24:19;30.20;;;21.80;;
3253;SDS011;1639;42.804;23.342;2024-03-02T08:26:44;21.73;;;16.43;;
3253;SDS011;1639;42.804;23.342;2024-03-02T08:29:09;25.60;;;17.87;;
3253;SDS011;1639;42.804;23.342;2024-03-02T08:31:35;35.47;;;22.10;;
3253;SDS011;1639;42.804;23.342;2024-03-02T08:34:00;23.43;;;16.77;;
3253;SDS011;1639;42.804;23.342;2024-03-02T08:36:25;31.87;;;20.03;;
3253;SDS011;1639;42.804;23.342;2024-03-02T08:38:51;36.80;;;22.10;;
3253;SDS011;1639;42.804;23.342;2024-03-02T08:41:16;29.20;;;18.23;;
3253;SDS011;1639;42.804;23.342;2024-03-02T08:43:42;23.70;;;19.00;;
3253;SDS011;1639;42.804;23.342;2024-03-02T08:46:08;23.33;;;17.80;;
3253;SDS011;1639;42.804;23.342;2024-03-02T08:48:34;26.83;;;19.47;;
3253;SDS011;1639;42.804;23.342;2024-03-02T08:50:59;27.50;;;18.93;;
3253;SDS011;1639;42.804;23.342;2024-03-02T08:53:24;20.83;;;17.23;;
3253;SDS011;1639;42.804;23.342;2024-03-02T08:55:50;31.07;;;18.73;;
3253;SDS011;1639;42.804;23.342;2024-03-02T08:58:15;38.57;;;22.50;;
3253;SDS011;1639;42.804;23.342;2024-03-02T09:00:41;24.03;;;17.30;;
3253;SDS011;1639;42.804;23.342;2024-03-02T09:03:07;25.63;;;19.70;;
3253;SDS011;1639;42.804;23.342;2024-03-02T09:05:32;20.50;;;15.73;;
3253;SDS011;1639;42.804;23.342;2024-03-02T09:07:58;28.97;;;18.93;;
3253;SDS011;1639;42.804;23.342;2024-03-02T09:10:23;19.10;;;17.20;;
3253;SDS011;1639;42.804;23.342;2024-03-02T09:12:48;29.60;;;18.23;;
3253;SDS011;1639;42.804;23.342;2024-03-02T09:15:14;20.93;;;18.70;;
3253;SDS011;1639;42.804;23.342;2024-03-02T09:17:39;23.93;;;17.33;;
3253;SDS011;1639;42.804;23.342;2024-03-02T09:20:05;27.80;;;18.00;;
3253;SDS011;1639;42.804;23.342;2024-03-02T09:22:31;24.87;;;19.40;;
3253;SDS011;1639;42.804;23.342;2024-03-02T09:24:57;27.03;;;17.73;;
3253;SDS011;1639;42.804;23.342;2024-03-02T09:27:23;22.13;;;16.37;;
3253;SDS011;1639;42.804;23.342;2024-03-02T09:29:48;28.07;;;17.03;;
3253;SDS011;1639;42.804;23.342;2024-03-02T09:32:14;21.33;;;18.00;;
3253;SDS011;1639;42.804;23.342;2024-03-02T09:34:39;25.20;;;18.57;;
3253;SDS011;1639;42.804;23.342;2024-03-02T09:37:05;21.73;;;16.67;;
3253;SDS011;1639;42.804;23.342;2024-03-02T09:39:31;29.00;;;21.20;;
3253;SDS011;1639;42.804;23.342;2024-03-02T09:41:56;27.23;;;22.40;;
3253;SDS011;1639;42.804;23.342;2024-03-02T09:44:22;24.40;;;17.80;;
3253;SDS011;1639;42.804;23.342;2024-03-02T09:46:50;27.00;;;18.70;;
3253;SDS011;1639;42.804;23.342;2024-03-02T09:49:16;25.60;;;16.70;;
3253;SDS011;1639;42.804;23.342;2024-03-02T09:51:44;34.37;;;20.83;;
3253;SDS011;1639;42.804;23.342;2024-03-02T09:54:12;22.70;;;16.40;;
3253;SDS011;1639;42.804;23.342;2024-03-02T09:56:38;23.30;;;19.20;;
3253;SDS011;1639;42.804;23.342;2024-03-02T09:59:04;30.10;;;19.10;;
3253;SDS011;1639;42.804;23.342;2024-03-02T10:01:30;19.13;;;14.77;;
3253;SDS011;1639;42.804;23.342;2024-03-02T10:03:57;29.13;;;17.30;;
3253;SDS011;1639;42.804;23.342;2024-03-02T10:06:25;21.40;;;17.63;;
3253;SDS011;1639;42.804;23.342;2024-03-02T10:08:52;22.23;;;15.80;;
3253;SDS011;1639;42.804;23.342;2024-03-02T10:11:33;30.20;;;16.40;;
3253;SDS011;1639;42.804;23.342;2024-03-02T10:14:05;25.93;;;15.17;;
3253;SDS011;1639;42.804;23.342;2024-03-02T10:16:36;31.13;;;17.70;;
3253;SDS011;1639;42.804;23.342;2024-03-02T10:19:19;24.37;;;17.77;;
3253;SDS011;1639;42.804;23.342;2024-03-02T10:21:54;20.57;;;15.20;;
3253;SDS011;1639;42.804;23.342;2024-03-02T10:24:21;29.77;;;19.77;;
3253;SDS011;1639;42.804;23.342;2024-03-02T10:26:47;29.47;;;20.53;;
3253;SDS011;1639;42.804;23.342;2024-03-02T10:29:13;30.90;;;19.27;;
3253;SDS011;1639;42.804;23.342;2024-03-02T10:31:39;25.73;;;18.23;;
3253;SDS011;1639;42.804;23.342;2024-03-02T10:34:06;36.10;;;17.73;;
3253;SDS011;1639;42.804;23.342;2024-03-02T10:36:33;32.53;;;20.30;;
3253;SDS011;1639;42.804;23.342;2024-03-02T10:39:01;27.40;;;18.53;;
3253;SDS011;1639;42.804;23.342;2024-03-02T10:41:27;24.37;;;17.63;;
3253;SDS011;1639;42.804;23.342;2024-03-02T10:43:53;23.07;;;18.80;;
3253;SDS011;1639;42.804;23.342;2024-03-02T10:46:26;25.37;;;18.93;;
3253;SDS011;1639;42.804;23.342;2024-03-02T10:48:55;21.60;;;16.03;;
3253;SDS011;1639;42.804;23.342;2024-03-02T10:51:23;25.23;;;17.43;;
3253;SDS011;1639;42.804;23.342;2024-03-02T10:53:54;23.20;;;16.33;;
3253;SDS011;1639;42.804;23.342;2024-03-02T11:01:39;25.60;;;16.00;;
3253;SDS011;1639;42.804;23.342;2024-03-02T11:04:08;24.03;;;15.77;;
3253;SDS011;1639;42.804;23.342;2024-03-02T11:06:34;23.43;;;14.10;;
3253;SDS011;1639;42.804;23.342;2024-03-02T11:09:06;21.73;;;14.33;;
3253;SDS011;1639;42.804;23.342;2024-03-02T11:11:36;19.43;;;14.30;;
3253;SDS011;1639;42.804;23.342;2024-03-02T11:14:04;20.40;;;16.20;;
3253;SDS011;1639;42.804;23.342;2024-03-02T11:16:36;21.93;;;15.57;;
3253;SDS011;1639;42.804;23.342;2024-03-02T11:19:04;18.70;;;13.07;;
3253;SDS011;1639;42.804;23.342;2024-03-02T11:21:34;21.97;;;14.77;;
3253;SDS011;1639;42.804;23.342;2024-03-02T11:24:13;27.47;;;15.40;;
3253;SDS011;1639;42.804;23.342;2024-03-02T11:26:46;19.97;;;14.87;;
3253;SDS011;1639;42.804;23.342;2024-03-02T11:29:36;17.30;;;14.87;;
3253;SDS011;1639;42.804;23.342;2024-03-02T11:32:03;23.23;;;14.93;;
3253;SDS011;1639;42.804;23.342;2024-03-02T11:34:30;14.90;;;11.67;;
3253;SDS011;1639;42.804;23.342;2024-03-02T11:37:03;23.00;;;14.20;;
3253;SDS011;1639;42.804;23.342;2024-03-02T11:39:29;29.93;;;15.37;;
3253;SDS011;1639;42.804;23.342;2024-03-02T11:41:56;24.80;;;16.70;;
3253;SDS011;1639;42.804;23.342;2024-03-02T11:44:22;38.83;;;16.07;;
3253;SDS011;1639;42.804;23.342;2024-03-02T11:47:00;19.23;;;14.30;;
3253;SDS011;1639;42.804;23.342;2024-03-02T11:49:39;23.10;;;17.07;;
3253;SDS011;1639;42.804;23.342;2024-03-02T11:52:13;18.63;;;12.47;;
3253;SDS011;1639;42.804;23.342;2024-03-02T11:54:46;15.00;;;12.40;;
3253;SDS011;1639;42.804;23.342;2024-03-02T11:57:18;21.03;;;13.03;;
3253;SDS011;1639;42.804;23.342;2024-03-02T11:59:45;25.53;;;11.50;;
3253;SDS011;1639;42.804;23.342;2024-03-02T12:02:15;16.23;;;11.40;;
3253;SDS011;1639;42.804;23.342;2024-03-02T12:04:42;18.70;;;11.97;;
3253;SDS011;1639;42.804;23.342;2024-03-02T12:07:08;17.83;;;14.13;;
3253;SDS011;1639;42.804;23.342;2024-03-02T12:09:34;17.37;;;12.60;;
3253;SDS011;1639;42.804;23.342;2024-03-02T12:14:30;22.10;;;16.47;;
3253;SDS011;1639;42.804;23.342;2024-03-02T12:16:56;17.80;;;13.07;;
3253;SDS011;1639;42.804;23.342;2024-03-02T12:19:23;20.77;;;12.20;;
3253;SDS011;1639;42.804;23.342;2024-03-02T12:21:49;15.33;;;11.47;;
3253;SDS011;1639;42.804;23.342;2024-03-02T12:24:15;29.70;;;13.77;;
3253;SDS011;1639;42.804;23.342;2024-03-02T12:26:40;18.77;;;12.53;;
3253;SDS011;1639;42.804;23.342;2024-03-02T12:29:06;17.60;;;12.07;;
3253;SDS011;1639;42.804;23.342;2024-03-02T12:31:32;22.47;;;12.30;;
3253;SDS011;1639;42.804;23.342;2024-03-02T12:33:57;18.13;;;11.40;;
3253;SDS011;1639;42.804;23.342;2024-03-02T12:36:23;13.80;;;12.20;;
3253;SDS011;1639;42.804;23.342;2024-03-02T12:38:52;16.33;;;12.07;;
3253;SDS011;1639;42.804;23.342;2024-03-02T12:41:18;21.57;;;11.67;;
3253;SDS011;1639;42.804;23.342;2024-03-02T12:43:43;19.20;;;13.00;;
3253;SDS011;1639;42.804;23.342;2024-03-02T12:46:10;17.07;;;11.70;;
3253;SDS011;1639;42.804;23.342;2024-03-02T12:48:36;19.80;;;12.00;;
3253;SDS011;1639;42.804;23.342;2024-03-02T12:51:02;17.30;;;10.73;;
3253;SDS011;1639;42.804;23.342;2024-03-02T12:53:28;21.17;;;13.97;;
3253;SDS011;1639;42.804;23.342;2024-03-02T12:55:53;14.40;;;9.57;;
3253;SDS011;1639;42.804;23.342;2024-03-02T12:58:21;15.27;;;9.27;;
3253;SDS011;1639;42.804;23.342;2024-03-02T13:00:47;17.60;;;9.90;;
3253;SDS011;1639;42.804;23.342;2024-03-02T13:03:12;14.37;;;10.63;;
3253;SDS011;1639;42.804;23.342;2024-03-02T13:05:38;13.80;;;10.00;;
3253;SDS011;1639;42.804;23.342;2024-03-02T13:08:04;14.40;;;11.73;;
3253;SDS011;1639;42.804;23.342;2024-03-02T13:10:32;12.67;;;10.27;;
3253;SDS011;1639;42.804;23.342;2024-03-02T13:12:57;16.57;;;9.90;;
3253;SDS011;1639;42.804;23.342;2024-03-02T13:15:23;19.60;;;11.27;;
3253;SDS011;1639;42.804;23.342;2024-03-02T13:17:50;16.70;;;10.90;;
3253;SDS011;1639;42.804;23.342;2024-03-02T13:20:16;15.80;;;10.30;;
3253;SDS011;1639;42.804;23.342;2024-03-02T13:22:43;10.90;;;9.80;;
3253;SDS011;1639;42.804;23.342;2024-03-02T13:25:08;13.90;;;9.93;;
3253;SDS011;1639;42.804;23.342;2024-03-02T13:27:35;12.77;;;9.73;;
3253;SDS011;1639;42.804;23.342;2024-03-02T13:30:02;14.20;;;10.20;;
3253;SDS011;1639;42.804;23.342;2024-03-02T13:32:28;18.33;;;11.57;;
3253;SDS011;1639;42.804;23.342;2024-03-02T13:34:54;17.43;;;10.33;;
3253;SDS011;1639;42.804;23.342;2024-03-02T13:37:20;15.83;;;10.83;;
3253;SDS011;1639;42.804;23.342;2024-03-02T13:39:46;13.70;;;10.30;;
3253;SDS011;1639;42.804;23.342;2024-03-02T13:42:11;11.90;;;10.00;;
3253;SDS011;1639;42.804;23.342;2024-03-02T13:44:39;15.77;;;9.80;;
3253;SDS011;1639;42.804;23.342;2024-03-02T13:47:05;11.23;;;9.60;;
3253;SDS011;1639;42.804;23.342;2024-03-02T13:49:31;14.70;;;11.07;;
3253;SDS011;1639;42.804;23.342;2024-03-02T13:52:03;14.27;;;10.63;;
3253;SDS011;1639;42.804;23.342;2024-03-02T13:54:36;15.50;;;11.70;;
3253;SDS011;1639;42.804;23.342;2024-03-02T13:57:03;15.97;;;10.43;;
3253;SDS011;1639;42.804;23.342;2024-03-02T13:59:29;12.27;;;9.90;;
3253;SDS011;1639;42.804;23.342;2024-03-02T14:01:54;16.83;;;10.60;;
3253;SDS011;1639;42.804;23.342;2024-03-02T14:04:19;13.37;;;11.70;;
3253;SDS011;1639;42.804;23.342;2024-03-02T14:06:45;16.40;;;12.10;;
3253;SDS011;1639;42.804;23.342;2024-03-02T14:09:11;19.63;;;12.33;;
3253;SDS011;1639;42.804;23.342;2024-03-02T14:11:36;14.93;;;10.13;;
3253;SDS011;1639;42.804;23.342;2024-03-02T14:14:01;16.77;;;10.80;;
3253;SDS011;1639;42.804;23.342;2024-03-02T14:16:27;13.60;;;10.57;;
3253;SDS011;1639;42.804;23.342;2024-03-02T14:18:53;14.37;;;10.10;;
3253;SDS011;1639;42.804;23.342;2024-03-02T14:21:18;13.10;;;9.70;;
3253;SDS011;1639;42.804;23.342;2024-03-02T14:23:43;16.03;;;12.87;;
3253;SDS011;1639;42.804;23.342;2024-03-02T14:26:09;11.87;;;9.60;;
3253;SDS011;1639;42.804;23.342;2024-03-02T14:28:34;19.93;;;10.90;;
3253;SDS011;1639;42.804;23.342;2024-03-02T14:30:59;14.67;;;10.27;;
3253;SDS011;1639;42.804;23.342;2024-03-02T14:33:26;16.33;;;10.07;;
3253;SDS011;1639;42.804;23.342;2024-03-02T14:35:51;16.20;;;10.87;;
3253;SDS011;1639;42.804;23.342;2024-03-02T14:38:17;14.57;;;10.97;;
3253;SDS011;1639;42.804;23.342;2024-03-02T14:40:42;12.30;;;9.70;;
3253;SDS011;1639;42.804;23.342;2024-03-02T14:43:08;16.80;;;11.37;;